createdAt,value
2023-05-23T00:01:24.937Z,13.78
2023-05-23T00:03:53.946Z,13.59
2023-05-23T00:06:23.702Z,13.45
2023-05-23T00:08:50.632Z,13.49
2023-05-23T00:11:18.988Z,13.50
2023-05-23T00:13:45.978Z,13.50
2023-05-23T00:16:12.694Z,13.52
2023-05-23T00:18:43.252Z,13.51
2023-05-23T00:21:10.144Z,13.59
2023-05-23T00:23:36.919Z,13.76
2023-05-23T00:26:04.936Z,13.75
2023-05-23T00:28:31.654Z,13.68
2023-05-23T00:30:58.480Z,13.74
2023-05-23T00:33:26.619Z,13.56
2023-05-23T00:35:53.290Z,13.48
2023-05-23T00:38:20.148Z,13.50
2023-05-23T00:40:47.544Z,13.49
2023-05-23T00:43:14.456Z,13.54
2023-05-23T00:45:41.634Z,13.59
2023-05-23T00:48:09.077Z,13.45
2023-05-23T00:50:36.231Z,13.36
2023-05-23T00:53:03.939Z,13.35
2023-05-23T00:55:32.479Z,13.48
2023-05-23T00:57:59.621Z,13.69
2023-05-23T01:00:27.775Z,13.79
2023-05-23T01:02:55.008Z,13.88
2023-05-23T01:05:25.248Z,13.96
2023-05-23T01:07:53.112Z,14.02
2023-05-23T01:10:26.052Z,14.01
2023-05-23T01:13:14.840Z,13.93
2023-05-23T01:16:09.703Z,13.81
2023-05-23T01:19:18.353Z,13.73
2023-05-23T01:21:53.388Z,13.63
2023-05-23T01:24:40.363Z,13.62
2023-05-23T01:27:50.473Z,13.61
2023-05-23T01:30:20.437Z,13.59
2023-05-23T01:32:50.768Z,13.63
2023-05-23T01:35:26.908Z,13.64
2023-05-23T01:37:55.841Z,13.60
2023-05-23T01:40:25.157Z,13.62
2023-05-23T01:42:55.241Z,13.63
2023-05-23T01:45:22.200Z,13.62
2023-05-23T01:47:51.294Z,13.62
2023-05-23T01:50:18.587Z,13.82
2023-05-23T01:52:47.562Z,13.93
2023-05-23T01:55:18.973Z,13.89
2023-05-23T01:57:49.802Z,13.93
2023-05-23T02:00:17.402Z,14.02
2023-05-23T02:02:47.505Z,14.04
2023-05-23T02:05:16.641Z,14.03
2023-05-23T02:07:43.408Z,13.96
2023-05-23T02:10:10.273Z,13.99
2023-05-23T02:12:38.122Z,13.89
2023-05-23T02:15:05.745Z,13.82
2023-05-23T02:17:32.730Z,13.83
2023-05-23T02:19:59.873Z,13.95
2023-05-23T02:22:26.609Z,13.93
2023-05-23T02:24:53.598Z,13.85
2023-05-23T02:27:20.341Z,13.92
2023-05-23T02:29:47.133Z,13.92
2023-05-23T02:32:14.074Z,13.88
2023-05-23T02:34:40.848Z,13.90
2023-05-23T02:37:07.990Z,13.99
2023-05-23T02:39:37.139Z,14.01
2023-05-23T02:42:04.865Z,14.01
2023-05-23T02:44:32.267Z,13.95
2023-05-23T02:46:59.066Z,13.95
2023-05-23T02:49:25.954Z,13.94
2023-05-23T02:51:52.892Z,13.92
2023-05-23T02:54:19.955Z,13.95
2023-05-23T02:56:46.929Z,13.96
2023-05-23T02:59:13.865Z,14.03
2023-05-23T03:01:40.776Z,13.95
2023-05-23T03:04:07.716Z,13.97
2023-05-23T03:06:36.880Z,14.01
2023-05-23T03:09:04.111Z,13.95
2023-05-23T03:11:30.955Z,13.88
2023-05-23T03:13:59.555Z,13.82
2023-05-23T03:16:26.505Z,13.82
2023-05-23T03:18:53.543Z,13.91
2023-05-23T03:21:20.301Z,13.88
2023-05-23T03:23:47.526Z,13.90
2023-05-23T03:26:14.261Z,13.83
2023-05-23T03:28:41.062Z,13.81
2023-05-23T03:31:07.758Z,13.81
2023-05-23T03:33:34.489Z,13.92
2023-05-23T03:36:01.277Z,13.96
2023-05-23T03:38:28.045Z,14.04
2023-05-23T03:40:54.853Z,14.10
2023-05-23T03:43:21.618Z,14.09
2023-05-23T03:45:48.739Z,14.10
2023-05-23T03:48:17.530Z,14.10
2023-05-23T03:50:44.624Z,14.17
2023-05-23T03:53:12.093Z,14.25
2023-05-23T03:55:42.607Z,14.35
2023-05-23T03:58:09.696Z,14.51
2023-05-23T04:00:37.143Z,14.66
2023-05-23T04:03:06.939Z,14.73
2023-05-23T04:05:33.727Z,14.75
2023-05-23T04:08:01.657Z,14.78
2023-05-23T04:10:28.973Z,14.76
2023-05-23T04:12:57.076Z,14.79
2023-05-23T04:15:24.852Z,14.80
2023-05-23T04:18:03.767Z,14.92
2023-05-23T04:20:31.156Z,15.03
2023-05-23T04:22:57.931Z,15.04
2023-05-23T04:25:26.405Z,15.09
2023-05-23T04:28:06.604Z,15.27
2023-05-23T04:30:33.746Z,15.35
2023-05-23T04:33:00.572Z,15.49
2023-05-23T04:35:29.071Z,15.66
2023-05-23T04:37:56.873Z,15.61
2023-05-23T04:40:25.814Z,15.67
2023-05-23T04:43:16.493Z,15.67
2023-05-23T04:45:56.039Z,15.75
2023-05-23T04:48:34.924Z,15.90
2023-05-23T04:51:06.145Z,15.99
2023-05-23T04:53:33.025Z,15.97
2023-05-23T04:55:59.774Z,16.03
2023-05-23T04:58:26.666Z,16.21
2023-05-23T05:00:57.129Z,16.37
2023-05-23T05:03:25.209Z,16.47
2023-05-23T05:05:52.168Z,16.55
2023-05-23T05:08:20.103Z,16.63
2023-05-23T05:10:47.143Z,16.65
2023-05-23T05:13:15.921Z,16.76
2023-05-23T05:15:47.923Z,16.85
2023-05-23T05:18:14.916Z,16.93
2023-05-23T05:20:42.180Z,16.97
2023-05-23T05:23:09.915Z,16.98
2023-05-23T05:25:38.299Z,17.10
2023-05-23T05:28:06.085Z,17.31
2023-05-23T05:30:37.558Z,17.42
2023-05-23T05:33:06.410Z,17.65
2023-05-23T05:35:34.376Z,17.77
2023-05-23T05:38:05.475Z,17.87
2023-05-23T05:40:32.856Z,18.08
2023-05-23T05:43:01.393Z,18.30
2023-05-23T05:45:28.190Z,18.54
2023-05-23T05:47:55.090Z,18.72
2023-05-23T05:50:23.824Z,18.84
2023-05-23T05:52:51.273Z,18.95
2023-05-23T05:55:18.100Z,19.11
2023-05-23T05:57:48.479Z,19.24
2023-05-23T06:00:19.212Z,19.33
2023-05-23T06:02:52.068Z,19.48
2023-05-23T06:05:39.460Z,19.55
2023-05-23T06:08:06.574Z,19.57
2023-05-23T06:10:33.587Z,19.49
2023-05-23T06:13:00.458Z,19.50
2023-05-23T06:15:27.476Z,19.50
2023-05-23T06:17:54.260Z,19.70
2023-05-23T06:20:22.058Z,19.81
2023-05-23T06:22:49.272Z,19.93
2023-05-23T06:25:16.372Z,20.04
2023-05-23T06:27:44.908Z,20.15
2023-05-23T06:30:12.240Z,20.23
2023-05-23T06:32:40.627Z,20.22
2023-05-23T06:35:07.877Z,20.20
2023-05-23T06:37:35.192Z,20.25
2023-05-23T06:40:02.143Z,20.30
2023-05-23T06:42:28.796Z,20.32
2023-05-23T06:45:19.069Z,20.46
2023-05-23T06:47:48.054Z,20.69
2023-05-23T06:50:14.872Z,20.88
2023-05-23T06:52:42.920Z,21.04
2023-05-23T06:55:10.273Z,21.26
2023-05-23T06:57:39.398Z,21.37
2023-05-23T07:00:07.008Z,21.48
2023-05-23T07:02:39.883Z,21.66
2023-05-23T07:05:07.288Z,21.85
2023-05-23T07:07:52.330Z,22.32
2023-05-23T07:10:19.961Z,22.65
2023-05-23T07:12:48.506Z,22.82
2023-05-23T07:15:16.701Z,22.93
2023-05-23T07:18:09.673Z,22.86
2023-05-23T07:20:36.585Z,22.97
2023-05-23T07:23:11.447Z,23.04
2023-05-23T07:25:50.142Z,22.99
2023-05-23T07:28:29.443Z,23.00
2023-05-23T07:30:58.375Z,22.92
2023-05-23T07:33:25.497Z,22.96
2023-05-23T07:36:00.927Z,22.97
2023-05-23T07:38:27.673Z,22.88
2023-05-23T07:41:03.079Z,22.66
2023-05-23T07:43:37.433Z,22.29
2023-05-23T07:46:04.320Z,22.27
2023-05-23T07:48:32.134Z,21.95
2023-05-23T07:50:59.264Z,21.89
2023-05-23T07:53:26.381Z,21.92
2023-05-23T07:55:53.181Z,21.94
2023-05-23T07:58:22.164Z,22.00
2023-05-23T08:00:51.140Z,21.96
2023-05-23T08:03:39.497Z,21.96
2023-05-23T08:06:13.132Z,21.91
2023-05-23T08:08:39.863Z,21.78
2023-05-23T08:11:08.462Z,21.90
2023-05-23T08:13:41.095Z,22.01
2023-05-23T08:16:31.027Z,22.15
2023-05-23T08:18:58.311Z,22.25
2023-05-23T08:21:25.055Z,22.29
2023-05-23T08:23:52.126Z,22.16
2023-05-23T08:26:19.144Z,22.03
2023-05-23T08:28:47.508Z,21.92
2023-05-23T08:31:14.806Z,22.00
2023-05-23T08:33:41.778Z,22.04
2023-05-23T08:36:08.447Z,22.02
2023-05-23T08:38:35.329Z,22.10
2023-05-23T08:41:20.135Z,22.31
2023-05-23T08:43:49.328Z,22.33
2023-05-23T08:46:23.196Z,22.39
2023-05-23T08:48:54.793Z,22.40
2023-05-23T08:51:26.267Z,22.38
2023-05-23T08:53:56.446Z,22.57
2023-05-23T08:56:28.526Z,22.73
2023-05-23T08:58:57.142Z,22.66
2023-05-23T09:01:26.519Z,22.73
2023-05-23T09:03:56.384Z,22.84
2023-05-23T09:06:29.544Z,22.86
2023-05-23T09:08:57.222Z,23.12
2023-05-23T09:11:25.433Z,23.25
2023-05-23T09:13:52.582Z,23.41
2023-05-23T09:16:20.567Z,23.47
2023-05-23T09:18:56.106Z,23.55
2023-05-23T09:21:25.375Z,23.40
2023-05-23T09:24:14.751Z,23.14
2023-05-23T09:26:42.366Z,23.13
2023-05-23T09:29:09.184Z,23.07
2023-05-23T09:31:35.952Z,23.33
2023-05-23T09:34:02.943Z,23.63
2023-05-23T09:36:30.601Z,23.94
2023-05-23T09:38:57.521Z,23.94
2023-05-23T09:41:25.241Z,24.02
2023-05-23T09:43:54.178Z,23.94
2023-05-23T09:46:22.364Z,23.94
2023-05-23T09:48:52.197Z,23.94
2023-05-23T09:51:21.878Z,24.19
2023-05-23T09:53:49.706Z,24.49
2023-05-23T09:56:17.540Z,24.39
2023-05-23T09:58:48.253Z,24.51
2023-05-23T10:01:16.353Z,24.86
2023-05-23T10:03:51.183Z,24.95
2023-05-23T10:06:25.656Z,24.76
2023-05-23T10:09:01.897Z,24.78
2023-05-23T10:11:34.771Z,24.97
2023-05-23T10:14:05.649Z,24.98
2023-05-23T10:16:59.293Z,24.97
2023-05-23T10:19:35.961Z,24.91
2023-05-23T10:22:06.989Z,24.78
2023-05-23T10:24:35.699Z,24.91
2023-05-23T10:27:03.644Z,24.51
2023-05-23T10:29:31.392Z,24.49
2023-05-23T10:31:59.200Z,24.59
2023-05-23T10:34:32.200Z,24.54
2023-05-23T10:37:10.484Z,24.38
2023-05-23T10:39:44.533Z,24.28
2023-05-23T10:42:32.454Z,23.87
2023-05-23T10:45:22.276Z,23.57
2023-05-23T10:47:50.315Z,22.92
2023-05-23T10:50:34.576Z,22.73
2023-05-23T10:53:03.326Z,22.76
2023-05-23T10:55:35.245Z,22.98
2023-05-23T10:58:11.498Z,23.35
2023-05-23T11:00:38.628Z,23.55
2023-05-23T11:03:09.177Z,23.89
2023-05-23T11:05:38.749Z,24.17
2023-05-23T11:08:14.015Z,24.25
2023-05-23T11:11:01.205Z,24.24
2023-05-23T11:13:55.816Z,24.18
2023-05-23T11:16:32.761Z,24.29
2023-05-23T11:19:18.177Z,24.53
2023-05-23T11:21:46.532Z,24.59
2023-05-23T11:24:13.250Z,24.55
2023-05-23T11:26:40.008Z,24.51
2023-05-23T11:29:10.050Z,24.66
2023-05-23T11:31:40.752Z,24.55
2023-05-23T11:34:07.952Z,24.67
2023-05-23T11:36:35.397Z,24.37
2023-05-23T11:39:03.854Z,24.68
2023-05-23T11:41:31.433Z,24.88
2023-05-23T11:43:59.867Z,24.97
2023-05-23T11:46:26.948Z,24.93
2023-05-23T11:48:55.096Z,24.35
2023-05-23T11:51:22.178Z,24.02
2023-05-23T11:53:49.367Z,23.48
2023-05-23T11:56:19.081Z,23.45
2023-05-23T11:58:45.879Z,23.32
2023-05-23T12:01:13.859Z,22.94
2023-05-23T12:03:48.835Z,22.61
2023-05-23T12:06:16.741Z,22.22
2023-05-23T12:08:43.607Z,22.04
2023-05-23T12:11:11.845Z,21.67
2023-05-23T12:13:42.245Z,21.48
2023-05-23T12:16:09.571Z,21.20
2023-05-23T12:18:38.115Z,21.14
2023-05-23T12:21:08.073Z,20.81
2023-05-23T12:23:36.439Z,20.74
2023-05-23T12:26:07.454Z,20.52
2023-05-23T12:28:38.702Z,20.58
2023-05-23T12:31:10.632Z,20.60
2023-05-23T12:33:44.191Z,20.39
2023-05-23T12:36:12.043Z,20.58
2023-05-23T12:38:40.818Z,20.36
2023-05-23T12:41:09.676Z,20.37
2023-05-23T12:43:51.725Z,20.23
2023-05-23T12:46:19.334Z,20.26
2023-05-23T12:48:46.061Z,19.97
2023-05-23T12:51:13.136Z,19.94
2023-05-23T12:53:39.970Z,19.92
2023-05-23T12:56:07.034Z,20.08
2023-05-23T12:58:34.385Z,20.19
2023-05-23T13:01:02.612Z,20.23
2023-05-23T13:03:33.553Z,20.17
2023-05-23T13:06:00.787Z,20.20
2023-05-23T13:08:27.728Z,20.31
2023-05-23T13:10:54.704Z,20.38
2023-05-23T13:13:22.620Z,20.19
2023-05-23T13:15:51.149Z,20.32
2023-05-23T13:18:18.515Z,20.40
2023-05-23T13:20:46.649Z,20.33
2023-05-23T13:23:14.038Z,20.25
2023-05-23T13:25:41.214Z,20.27
2023-05-23T13:28:08.194Z,20.31
2023-05-23T13:30:34.952Z,20.34
2023-05-23T13:33:01.918Z,20.27
2023-05-23T13:35:28.983Z,20.41
2023-05-23T13:37:55.804Z,20.47
2023-05-23T13:40:23.185Z,20.43
2023-05-23T13:42:51.571Z,20.55
2023-05-23T13:45:19.792Z,20.72
2023-05-23T13:47:47.425Z,20.93
2023-05-23T13:50:14.433Z,21.09
2023-05-23T13:52:44.173Z,21.40
2023-05-23T13:55:12.976Z,21.60
2023-05-23T13:57:39.700Z,21.59
2023-05-23T14:00:09.052Z,21.58
2023-05-23T14:02:36.120Z,21.55
2023-05-23T14:05:03.244Z,21.52
2023-05-23T14:07:30.038Z,21.34
2023-05-23T14:09:57.666Z,21.39
2023-05-23T14:12:24.484Z,21.28
2023-05-23T14:14:51.152Z,21.24
2023-05-23T14:17:18.584Z,21.13
2023-05-23T14:19:46.289Z,20.97
2023-05-23T14:22:13.170Z,21.10
2023-05-23T14:24:39.930Z,21.11
2023-05-23T14:27:10.228Z,21.08
2023-05-23T14:29:37.908Z,21.07
2023-05-23T14:32:04.907Z,21.17
2023-05-23T14:34:32.089Z,21.15
2023-05-23T14:36:58.959Z,21.32
2023-05-23T14:39:25.738Z,21.36
2023-05-23T14:41:52.541Z,21.38
2023-05-23T14:44:19.570Z,21.50
2023-05-23T14:46:50.084Z,21.64
2023-05-23T14:49:19.173Z,21.60
2023-05-23T14:51:51.393Z,21.49
2023-05-23T14:54:19.304Z,21.60
2023-05-23T14:56:46.172Z,21.47
2023-05-23T14:59:13.058Z,21.46
2023-05-23T15:01:40.596Z,21.29
2023-05-23T15:04:09.678Z,21.30
2023-05-23T15:06:38.722Z,21.35
2023-05-23T15:09:05.752Z,21.22
2023-05-23T15:11:34.947Z,21.00
2023-05-23T15:14:01.885Z,20.90
2023-05-23T15:16:32.918Z,20.97
2023-05-23T15:18:59.925Z,20.84
2023-05-23T15:21:27.011Z,20.76
2023-05-23T15:23:54.412Z,20.76
2023-05-23T15:26:21.173Z,20.70
2023-05-23T15:28:47.966Z,20.67
2023-05-23T15:31:14.736Z,20.54
2023-05-23T15:33:41.700Z,20.53
2023-05-23T15:36:08.586Z,20.54
2023-05-23T15:38:35.331Z,20.53
2023-05-23T15:41:03.193Z,20.47
2023-05-23T15:43:30.029Z,20.38
2023-05-23T15:45:56.918Z,20.38
2023-05-23T15:48:23.787Z,20.32
2023-05-23T15:50:50.500Z,20.27
2023-05-23T15:53:17.348Z,20.35
2023-05-23T15:55:44.238Z,20.20
2023-05-23T15:58:11.270Z,20.25
2023-05-23T16:00:38.225Z,20.20
2023-05-23T16:03:05.163Z,20.00
2023-05-23T16:05:31.937Z,20.02
2023-05-23T16:07:58.740Z,20.05
2023-05-23T16:10:25.649Z,20.00
2023-05-23T16:12:52.483Z,19.57
2023-05-23T16:15:19.500Z,19.17
2023-05-23T16:17:46.326Z,18.97
2023-05-23T16:20:13.636Z,18.67
2023-05-23T16:22:41.392Z,18.56
2023-05-23T16:25:10.697Z,18.43
2023-05-23T16:27:37.585Z,18.40
2023-05-23T16:30:06.293Z,18.35
2023-05-23T16:32:33.959Z,18.17
2023-05-23T16:35:01.058Z,17.99
2023-05-23T16:37:27.727Z,17.89
2023-05-23T16:39:54.525Z,17.63
2023-05-23T16:42:21.356Z,17.42
2023-05-23T16:44:48.097Z,17.14
2023-05-23T16:47:14.930Z,16.97
2023-05-23T16:49:41.576Z,16.85
2023-05-23T16:52:08.314Z,16.67
2023-05-23T16:54:35.250Z,16.55
2023-05-23T16:57:02.189Z,16.48
2023-05-23T16:59:29.954Z,16.52
2023-05-23T17:01:57.124Z,16.62
2023-05-23T17:04:24.197Z,16.65
2023-05-23T17:06:51.267Z,16.77
2023-05-23T17:09:18.350Z,16.78
2023-05-23T17:11:45.499Z,16.85
2023-05-23T17:14:12.825Z,16.84
2023-05-23T17:16:39.719Z,16.70
2023-05-23T17:19:07.691Z,16.78
2023-05-23T17:21:34.614Z,16.79
2023-05-23T17:24:02.416Z,16.86
2023-05-23T17:26:29.087Z,16.84
2023-05-23T17:28:56.063Z,16.83
2023-05-23T17:31:23.000Z,16.88
2023-05-23T17:33:49.987Z,16.81
2023-05-23T17:36:16.694Z,16.71
2023-05-23T17:38:43.391Z,16.65
2023-05-23T17:41:10.114Z,16.55
2023-05-23T17:43:36.873Z,16.50
2023-05-23T17:46:03.769Z,16.54
2023-05-23T17:48:45.925Z,16.44
2023-05-23T17:51:14.453Z,16.37
2023-05-23T17:53:41.834Z,16.26
2023-05-23T17:56:09.465Z,16.16
2023-05-23T17:58:37.724Z,16.22
2023-05-23T18:01:05.619Z,16.08
2023-05-23T18:03:32.462Z,15.99
2023-05-23T18:05:59.192Z,15.88
2023-05-23T18:08:25.947Z,15.83
2023-05-23T18:10:52.703Z,15.86
2023-05-23T18:13:19.437Z,15.80
2023-05-23T18:15:46.220Z,15.71
2023-05-23T18:18:12.986Z,15.60
2023-05-23T18:20:40.204Z,15.67
2023-05-23T18:23:07.791Z,15.62
2023-05-23T18:25:34.682Z,15.64
2023-05-23T18:28:02.255Z,15.55
2023-05-23T18:30:29.439Z,15.53
2023-05-23T18:32:56.582Z,15.54
2023-05-23T18:35:25.645Z,15.62
2023-05-23T18:37:53.944Z,15.54
2023-05-23T18:40:21.834Z,15.55
2023-05-23T18:42:50.254Z,15.45
2023-05-23T18:45:17.056Z,15.38
2023-05-23T18:47:44.673Z,15.40
2023-05-23T18:50:13.013Z,15.43
2023-05-23T18:52:39.906Z,15.37
2023-05-23T18:55:07.201Z,15.34
2023-05-23T18:57:33.919Z,15.41
2023-05-23T19:00:00.786Z,15.39
2023-05-23T19:02:27.759Z,15.37
2023-05-23T19:04:54.562Z,15.37
2023-05-23T19:07:21.338Z,15.34
2023-05-23T19:09:48.405Z,15.30
2023-05-23T19:12:15.148Z,15.26
2023-05-23T19:14:41.875Z,15.25
2023-05-23T19:17:09.595Z,15.26
2023-05-23T19:19:37.462Z,15.30
2023-05-23T19:22:04.753Z,15.45
2023-05-23T19:24:32.147Z,15.49
2023-05-23T19:26:58.946Z,15.58
2023-05-23T19:29:26.775Z,15.63
2023-05-23T19:31:54.750Z,15.70
2023-05-23T19:34:21.825Z,15.74
2023-05-23T19:36:49.039Z,15.76
2023-05-23T19:39:16.094Z,15.71
2023-05-23T19:41:42.973Z,15.72
2023-05-23T19:44:09.871Z,15.61
2023-05-23T19:46:36.751Z,15.62
2023-05-23T19:49:03.637Z,15.67
2023-05-23T19:51:30.401Z,15.70
2023-05-23T19:53:57.141Z,15.73
2023-05-23T19:56:25.397Z,15.71
2023-05-23T19:58:52.130Z,15.74
2023-05-23T20:01:18.912Z,15.78
2023-05-23T20:03:45.678Z,15.81
2023-05-23T20:06:12.668Z,15.77
2023-05-23T20:08:39.399Z,15.78
2023-05-23T20:11:06.153Z,15.75
2023-05-23T20:13:32.861Z,15.66
2023-05-23T20:15:59.687Z,15.61
2023-05-23T20:18:26.440Z,15.61
2023-05-23T20:20:53.601Z,15.65
2023-05-23T20:23:20.598Z,15.62
2023-05-23T20:25:48.527Z,15.66
2023-05-23T20:28:15.263Z,15.61
2023-05-23T20:30:42.277Z,15.59
2023-05-23T20:33:09.267Z,15.54
2023-05-23T20:35:36.715Z,15.56
2023-05-23T20:38:03.676Z,15.52
2023-05-23T20:40:33.602Z,15.49
2023-05-23T20:43:04.707Z,15.46
2023-05-23T20:45:32.932Z,15.44
2023-05-23T20:48:00.034Z,15.50
2023-05-23T20:50:26.932Z,15.52
2023-05-23T20:52:54.316Z,15.45
2023-05-23T20:55:22.389Z,15.46
2023-05-23T20:57:49.242Z,15.48
2023-05-23T21:00:18.209Z,15.50
2023-05-23T21:02:45.802Z,15.45
2023-05-23T21:05:12.755Z,15.49
2023-05-23T21:07:39.761Z,15.45
2023-05-23T21:10:06.936Z,15.42
2023-05-23T21:12:33.670Z,15.42
2023-05-23T21:15:00.779Z,15.44
2023-05-23T21:17:27.589Z,15.40
2023-05-23T21:19:54.372Z,15.37
2023-05-23T21:22:21.125Z,15.36
2023-05-23T21:24:47.942Z,15.37
2023-05-23T21:27:14.621Z,15.31
2023-05-23T21:29:41.975Z,15.36
2023-05-23T21:32:08.775Z,15.29
2023-05-23T21:34:35.513Z,15.27
2023-05-23T21:37:02.313Z,15.32
2023-05-23T21:39:39.118Z,15.34
2023-05-23T21:42:10.143Z,15.24
2023-05-23T21:44:38.246Z,15.20
2023-05-23T21:47:07.091Z,15.20
2023-05-23T21:49:35.419Z,15.17
2023-05-23T21:52:02.707Z,15.04
2023-05-23T21:54:29.579Z,15.08
2023-05-23T21:56:56.708Z,15.14
2023-05-23T21:59:23.922Z,15.10
2023-05-23T22:01:50.914Z,15.04
2023-05-23T22:04:20.137Z,15.00
2023-05-23T22:06:47.182Z,15.03
2023-05-23T22:09:15.352Z,15.00
2023-05-23T22:11:42.173Z,15.02
2023-05-23T22:14:09.158Z,15.04
2023-05-23T22:16:41.694Z,15.01
2023-05-23T22:19:10.369Z,14.98
2023-05-23T22:21:37.501Z,14.99
2023-05-23T22:24:04.990Z,15.04
2023-05-23T22:26:32.166Z,15.02
2023-05-23T22:28:59.285Z,15.03
2023-05-23T22:31:26.486Z,15.03
2023-05-23T22:33:53.344Z,14.98
2023-05-23T22:36:22.081Z,14.98
2023-05-23T22:38:48.872Z,15.00
2023-05-23T22:41:15.579Z,14.95
2023-05-23T22:43:42.553Z,14.98
2023-05-23T22:46:09.450Z,15.02
2023-05-23T22:48:36.665Z,14.98
2023-05-23T22:51:04.001Z,14.95
2023-05-23T22:53:31.189Z,14.85
2023-05-23T22:55:57.989Z,14.84
2023-05-23T22:58:24.804Z,14.86
2023-05-23T23:00:51.943Z,14.92
2023-05-23T23:03:19.033Z,14.90
2023-05-23T23:05:46.436Z,14.86
2023-05-23T23:08:13.232Z,14.79
2023-05-23T23:10:41.488Z,14.62
2023-05-23T23:13:08.589Z,14.60
2023-05-23T23:15:36.840Z,14.65
2023-05-23T23:18:05.982Z,14.58
2023-05-23T23:20:33.276Z,14.59
2023-05-23T23:23:00.344Z,14.56
2023-05-23T23:25:27.053Z,14.59
2023-05-23T23:27:53.755Z,14.52
2023-05-23T23:30:20.840Z,14.52
2023-05-23T23:32:47.529Z,14.55
2023-05-23T23:35:14.428Z,14.56
2023-05-23T23:37:41.319Z,14.51
2023-05-23T23:40:08.858Z,14.47
2023-05-23T23:42:35.738Z,14.45
2023-05-23T23:45:02.791Z,14.50
2023-05-23T23:47:29.692Z,14.49
2023-05-23T23:49:56.419Z,14.44
2023-05-23T23:52:23.283Z,14.41
2023-05-23T23:54:49.940Z,14.42
2023-05-23T23:57:16.766Z,14.38
2023-05-23T23:59:43.877Z,14.33
